»·PEaware :: N137AD L88-KSBP

N137AD :: L88-KSBP

FLIGHT INFORMATION

Flight Status: Arrived
Operator: Privately registered:
United States
More flights under this callsign
Pilot: Mike Z. (25595)
Aircraft: CESSNA 172 SKYHAWK
(C172)
More flights by this aircraft type
Origin: L88 New Cuyama
United States
Destination: KSBP San Luis Co Regl
United States
More flights between these airports :: More routes between these airports
Route: L88 POZOE KSBP
File this flight plan on PilotEdge
Remarks: CAT 02A
Altitude:
(Current/Filed)
7,500ft
Speed:
(Current/Filed)
110kts
Departed: 23-Jul-19 03:55 PM
Arrived: 23-Jul-19 05:12 PM
Distance/Time
Traveled:
50nm/1:16
Distance/Time
To Go:
Arrived

Flight Plot

Page will automatically refresh every two minutes.

Flight plan parsing failed; only flown route is shown


Map Options




Map Legend


Flown Route
Filed Route
Departure Airport
Arrival Airport
Navaid (VOR, NDB)
Fix

Horizontal Profiles

Position Reports

Time Latitude Longitude Heading Altitude Ground
Speed
23-Jul-19 15:45 34.942856 -119.690285 204 2156ft 0kts
23-Jul-19 15:45 34.942856 -119.690285 204 2156ft 0kts
23-Jul-19 15:47 34.942856 -119.690285 204 2156ft 0kts
23-Jul-19 15:48 34.942856 -119.690285 204 2156ft 0kts
23-Jul-19 15:48 34.942856 -119.690285 204 2156ft 0kts
23-Jul-19 15:49 34.942856 -119.690285 205 2156ft 0kts
23-Jul-19 15:50 34.942705 -119.691142 198 2155ft 0kts
23-Jul-19 15:51 34.942705 -119.691142 198 2155ft 0kts
23-Jul-19 15:52 34.941885 -119.690332 117 2158ft 34kts
23-Jul-19 15:53 34.937737 -119.680137 294 2199ft 2kts
23-Jul-19 15:54 34.943656 -119.692949 300 2332ft 78kts
23-Jul-19 15:55 34.955005 -119.717544 296 2875ft 86kts
23-Jul-19 15:56 34.965644 -119.740341 296 3573ft 72kts
23-Jul-19 15:57 34.975810 -119.761401 296 4124ft 74kts
23-Jul-19 15:58 34.986729 -119.783674 296 4635ft 78kts
23-Jul-19 15:59 34.997605 -119.805373 296 5212ft 69kts
23-Jul-19 16:00 35.008049 -119.826345 286 5609ft 79kts
23-Jul-19 16:01 35.065676 -120.006056 291 6282ft 101kts
23-Jul-19 16:02 35.078019 -120.037340 291 6595ft 102kts
23-Jul-19 16:03 35.090861 -120.064393 295 7245ft 75kts
23-Jul-19 16:04 35.100328 -120.082090 295 7695ft 63kts
23-Jul-19 16:05 35.108420 -120.102626 282 7907ft 82kts
23-Jul-19 16:06 35.115373 -120.129511 282 8329ft 73kts
23-Jul-19 16:07 35.123416 -120.151242 288 8691ft 68kts
23-Jul-19 16:08 35.132996 -120.174060 288 8905ft 82kts
23-Jul-19 16:09 35.143262 -120.199333 288 9222ft 79kts
23-Jul-19 16:10 35.152703 -120.222105 287 9583ft 74kts
23-Jul-19 16:11 35.166152 -120.258504 281 9567ft 87kts
23-Jul-19 16:12 35.173643 -120.288351 279 9558ft 96kts
23-Jul-19 16:13 35.178091 -120.325621 258 8647ft 121kts
23-Jul-19 16:14 35.175663 -120.367200 281 7638ft 124kts
23-Jul-19 16:15 35.184380 -120.405831 282 6620ft 114kts
23-Jul-19 16:16 35.192387 -120.443134 282 5607ft 112kts
23-Jul-19 16:17 35.199832 -120.480160 282 4596ft 112kts
23-Jul-19 16:18 35.206784 -120.517050 282 3588ft 111kts
23-Jul-19 16:19 35.209565 -120.532489 282 3166ft 111kts
23-Jul-19 16:20 35.195773 -120.550638 194 2549ft 109kts
23-Jul-19 16:21 35.195773 -120.550638 194 2549ft 109kts
23-Jul-19 16:22 35.195773 -120.550638 194 2549ft 109kts
23-Jul-19 16:23 35.195773 -120.550638 194 2549ft 109kts
23-Jul-19 16:24 35.195773 -120.550638 194 2549ft 109kts
23-Jul-19 16:25 35.187806 -120.551891 186 2560ft 90kts
23-Jul-19 16:26 35.178670 -120.537774 100 2580ft 97kts
23-Jul-19 16:49 34.942856 -119.690285 204 2156ft 0kts
23-Jul-19 16:50 34.942856 -119.690285 204 2156ft 0kts
23-Jul-19 16:51 34.942856 -119.690285 204 2156ft 0kts
23-Jul-19 16:52 34.942850 -119.690288 205 2156ft 0kts
23-Jul-19 16:53 34.942786 -119.691067 219 2155ft 0kts
23-Jul-19 16:54 34.942786 -119.691067 220 2155ft 0kts
23-Jul-19 16:55 34.942421 -119.691219 160 2155ft 9kts
23-Jul-19 16:56 34.938191 -119.681355 115 2194ft 27kts
23-Jul-19 16:57 34.940217 -119.685968 298 2203ft 71kts
23-Jul-19 16:58 34.950180 -119.708118 292 2726ft 73kts
23-Jul-19 16:59 35.066174 -120.006180 292 5703ft 106kts
23-Jul-19 17:00 35.078498 -120.037141 292 5640ft 97kts
23-Jul-19 17:01 35.160589 -120.246167 295 5657ft 92kts
23-Jul-19 17:02 35.169144 -120.275563 284 5663ft 91kts
23-Jul-19 17:03 35.181159 -120.336057 282 5658ft 90kts
23-Jul-19 17:04 35.201148 -120.440625 282 5649ft 89kts
23-Jul-19 17:05 35.206952 -120.471100 283 5436ft 99kts
23-Jul-19 17:06 35.211598 -120.505524 270 4536ft 109kts
23-Jul-19 17:07 35.204925 -120.540771 254 3579ft 104kts
23-Jul-19 17:08 35.202605 -120.576118 286 2391ft 117kts
23-Jul-19 17:09 35.213601 -120.601647 313 1246ft 120kts
23-Jul-19 17:10 35.229573 -120.627394 305 414ft 78kts
23-Jul-19 17:11 35.237229 -120.639960 4 216ft 16kts
23-Jul-19 17:12 35.237496 -120.639910 5 216ft 0kts
23-Jul-19 17:13 35.238504 -120.640734 337 216ft 6kts
23-Jul-19 17:14 35.238544 -120.640795 256 216ft 0kts

Navigation Log

Ident Type
Flight plan parsing failed, navigation log unavailable